Fort Collins, CO (80524)

7:06 AM MDT op 23 juli 2016 (GMT -0600)
Diversity Farm | | Change Station

Hoogte 5135 ft 40.65 °N, 105.06 °W | Updated 6 seconds ago

Clear
Helder
72.1 °F
Voelt als 77 °F
N
0.0
Wind Variabel Wind van OZO
Gusts 0.0 mijl/u

Vandaag
Hoog -- | Laag -- °F
--% Kans op neerslag
Gisteren
Hoog -- | Laag -- °F
Precip. -- inches
Druk 30.07 inches
Zicht 9.0 mijlen
Wolken Helder
Warmteindex 77 °F
Dauwpunt 56 °F
Vochtigheid 56%
Neerslag 0.00 inches
Dikte sneeuw Niet beschikbaar.
5:49 AM 8:23 PM
Afnemende maan, 85% visible
METAR KGXY 231255Z AUTO 00000KT 9SM CLR 18/17 A3007 RMK AO1
Druk 30.07 inches
Zicht 9.0 mijlen
Wolken Helder
Warmteindex 77 °F
Dauwpunt 56 °F
Vochtigheid 56%
Neerslag 0.00 inches
Dikte sneeuw Niet beschikbaar.
5:49 AM 8:23 PM
Afnemende maan, 85% visible
METAR KGXY 231255Z AUTO 00000KT 9SM CLR 18/17 A3007 RMK AO1

10-Day Weather Forecast

Almanac

Astronomie

Jul. 23, 2016 Opkomst Ondergang
Werkelijke tijd
Burgerlijke schemering
Nautische schemering
Astronomische schemering
Maan
Golflengte van het zichtbare licht
Daglengte
Tomorrow will be .
, % of the Moon is Illuminated

Extremen vandaag

State Highs State Lows

Community

WunderPhotos

Upload Photos

1,926,816 foto’s ge-upload!

WunderBlog® & News

Nearby

Luchtkwaliteit

  Luchtkwaliteit LK-index Verontreinigende stof
Not available.

Dikte sneeuw

Station Depth Geometrische hoogte

Aardbevingen

Stad Distance Mag. Time & Date
Minimum magnitude displayed is 2.5.

Watertemperatuur langs de kust

Plaats Temperatuur

Stations

Nabije weerstations

Locatie station Temp. Gevoelstemperatuur Dauwpunt Vochtigheid Wind Precip. Hoogte Geactualiseerd Type
                   

Watches & Warnings

There are currently no watches in effect.